Time;durP1;ratioP1;P1;durP2;ratioP2;P2;SDS_P1;SDS_P2;PMS_P1;PMS_P2;Temp;Humidity;BMP_temperature;BMP_pressure;BME280_temperature;BME280_humidity;BME280_pressure;Samples;Min_cycle;Max_cycle;Signal;HPM_P1;HPM_P2
2022/12/02 00:01:09;;;;;;;;;;;2.60;92.40;;;;;;4985453;28;1985;-73
2022/12/02 00:03:37;;;;;;;;;;;2.70;92.50;;;;;;4984100;28;1664;-72
2022/12/02 00:06:05;;;;;;;;;;;2.70;92.70;;;;;;4984592;28;1069;-73
2022/12/02 00:08:33;;;;;;;;;;;2.70;92.50;;;;;;4983628;28;1388;-74
2022/12/02 00:11:02;;;;;;;;;;;2.70;92.30;;;;;;4978131;28;1070;-74
2022/12/02 00:13:31;;;;;;;;;;;2.70;92.30;;;;;;4983585;28;1271;-73
2022/12/02 00:15:59;;;;;;;;;;;2.90;92.50;;;;;;4986887;28;1188;-72
2022/12/02 00:18:29;;;;;;;;;;;2.90;92.50;;;;;;4987120;28;1039;-73
2022/12/02 00:20:57;;;;;;;;;;;2.90;92.60;;;;;;4985173;28;1919;-73
2022/12/02 00:23:24;;;;;;;;;;;2.80;92.80;;;;;;4976521;28;1269;-74
2022/12/02 00:25:53;;;;;;;;;;;2.70;92.70;;;;;;4986595;28;1131;-74
2022/12/02 00:28:21;;;;;;;;;;;2.80;92.90;;;;;;4990171;28;1016;-74
2022/12/02 00:30:48;;;;;;;;;;;2.80;93.00;;;;;;4990928;28;1131;-73
2022/12/02 00:33:17;;;;;;;;;;;2.70;93.20;;;;;;4978695;28;1532;-73
2022/12/02 00:35:46;;;;;;;;;;;2.70;93.40;;;;;;4986848;28;1148;-74
2022/12/02 00:38:13;;;;;;;;;;;2.70;93.50;;;;;;4983677;28;1530;-73
2022/12/02 00:40:41;;;;;;;;;;;2.70;93.40;;;;;;4985409;28;1914;-74
2022/12/02 00:48:40;;;;;;;;;;;2.70;92.90;;;;;;4985323;28;1042;-73
2022/12/02 00:51:09;;;;;;;;;;;3.00;93.20;;;;;;4984153;28;1012;-72
2022/12/02 00:53:36;;;;;;;;;;;2.70;92.80;;;;;;4977306;28;1335;-74
2022/12/02 00:56:04;;;;;;;;;;;2.80;92.80;;;;;;4984487;28;1173;-71
2022/12/02 00:58:31;;;;;;;;;;;2.80;92.70;;;;;;4985179;28;1521;-72
2022/12/02 01:00:59;;;;;;;;;;;2.50;92.60;;;;;;4978131;28;1986;-72
2022/12/02 01:03:27;;;;;;;;;;;2.70;92.60;;;;;;4985111;28;1276;-72
2022/12/02 01:05:54;;;;;;;;;;;2.80;92.60;;;;;;4986045;28;1053;-73
2022/12/02 01:08:26;;;;;;;;;;;2.70;92.50;;;;;;4983747;28;1666;-73
2022/12/02 01:10:53;;;;;;;;;;;2.80;92.40;;;;;;4978390;28;1026;-73
2022/12/02 01:13:21;;;;;;;;;;;2.60;92.40;;;;;;4983354;28;1289;-74
2022/12/02 01:15:49;;;;;;;;;;;2.40;92.60;;;;;;4978846;28;1256;-74
2022/12/02 01:18:17;;;;;;;;;;;2.50;92.80;;;;;;4980616;28;1086;-73
2022/12/02 01:20:44;;;;;;;;;;;2.60;92.40;;;;;;4981388;28;1910;-72
2022/12/02 01:23:12;;;;;;;;;;;2.70;92.20;;;;;;4981701;28;1580;-74
2022/12/02 01:25:41;;;;;;;;;;;3.00;92.10;;;;;;4984521;28;1113;-74
2022/12/02 01:28:08;;;;;;;;;;;2.80;92.10;;;;;;4976223;28;1041;-71
2022/12/02 01:30:36;;;;;;;;;;;2.60;91.90;;;;;;4990065;28;1086;-71
2022/12/02 01:33:04;;;;;;;;;;;2.50;92.20;;;;;;4985881;28;1283;-71
2022/12/02 01:35:31;;;;;;;;;;;2.80;92.30;;;;;;4979188;28;1009;-71
2022/12/02 01:37:59;;;;;;;;;;;2.80;92.10;;;;;;4976191;28;1054;-72
2022/12/02 01:40:27;;;;;;;;;;;2.80;92.20;;;;;;4978616;28;1143;-71
2022/12/02 01:42:56;;;;;;;;;;;2.80;92.20;;;;;;4977559;28;1910;-71
2022/12/02 01:45:24;;;;;;;;;;;2.80;92.30;;;;;;4982883;28;1007;-71
2022/12/02 01:47:52;;;;;;;;;;;2.60;92.50;;;;;;4986299;28;1062;-73
2022/12/02 01:50:20;;;;;;;;;;;2.70;92.50;;;;;;4985691;28;1079;-73
2022/12/02 01:52:47;;;;;;;;;;;2.80;92.70;;;;;;4975676;28;1381;-71
2022/12/02 01:55:22;;;;;;;;;;;2.80;92.60;;;;;;4984964;28;1357;-71
2022/12/02 01:57:50;;;;;;;;;;;3.00;92.40;;;;;;4985073;28;1664;-72
2022/12/02 02:00:19;;;;;;;;;;;2.60;92.60;;;;;;4975421;28;1081;-73
2022/12/02 02:02:47;;;;;;;;;;;2.70;92.70;;;;;;4978557;28;1911;-73
2022/12/02 02:05:16;;;;;;;;;;;2.80;92.70;;;;;;4987746;28;1110;-75
2022/12/02 02:07:44;;;;;;;;;;;2.60;92.60;;;;;;4986204;28;979;-73
2022/12/02 02:10:12;;;;;;;;;;;2.70;92.90;;;;;;4977869;28;1723;-73
2022/12/02 02:12:40;;;;;;;;;;;2.80;92.70;;;;;;4978186;28;1277;-73
2022/12/02 02:17:44;;;;;;;;;;;2.80;92.70;;;;;;5306319;23;1760;-87
2022/12/02 02:20:14;;;;;;;;;;;2.70;92.70;;;;;;4991104;28;1567;-88
2022/12/02 02:22:45;;;;;;;;;;;2.60;93.00;;;;;;4982427;28;1902;-88
2022/12/02 02:25:16;;;;;;;;;;;2.60;93.30;;;;;;4987554;28;1553;-88
2022/12/02 02:27:51;;;;;;;;;;;2.80;93.10;;;;;;4988820;28;1562;-88
2022/12/02 02:30:19;;;;;;;;;;;2.50;93.30;;;;;;4982006;28;1509;-88
2022/12/02 02:32:47;;;;;;;;;;;2.40;93.20;;;;;;4982466;28;1762;-88
2022/12/02 02:35:15;;;;;;;;;;;2.60;93.60;;;;;;5003862;28;1044;-88
2022/12/02 02:37:43;;;;;;;;;;;2.50;93.40;;;;;;4988194;28;1280;-86
2022/12/02 02:40:14;;;;;;;;;;;2.60;93.20;;;;;;4992874;28;1431;-87
2022/12/02 02:42:44;;;;;;;;;;;2.60;93.20;;;;;;4998169;28;1991;-87
2022/12/02 02:45:12;;;;;;;;;;;2.70;93.30;;;;;;4991184;28;986;-88
2022/12/02 02:47:40;;;;;;;;;;;2.80;93.10;;;;;;4999357;28;1212;-88
2022/12/02 02:50:08;;;;;;;;;;;2.50;93.50;;;;;;4994839;28;989;-86
2022/12/02 02:52:36;;;;;;;;;;;2.60;93.40;;;;;;5013914;28;1523;-89
2022/12/02 02:55:04;;;;;;;;;;;2.50;93.60;;;;;;5003380;28;1047;-89
2022/12/02 02:57:32;;;;;;;;;;;2.60;93.60;;;;;;4984540;28;1323;-90
2022/12/02 03:00:02;;;;;;;;;;;2.60;93.60;;;;;;4984117;28;1049;-89
2022/12/02 03:02:30;;;;;;;;;;;2.40;94.00;;;;;;4985276;28;1911;-86
2022/12/02 03:04:57;;;;;;;;;;;2.50;93.90;;;;;;4996275;28;946;-87
2022/12/02 03:07:25;;;;;;;;;;;2.50;94.00;;;;;;4990745;28;1701;-88
2022/12/02 03:09:53;;;;;;;;;;;2.60;94.20;;;;;;4990910;28;1281;-86
2022/12/02 03:12:21;;;;;;;;;;;2.70;93.90;;;;;;4991427;28;1709;-89
2022/12/02 03:14:49;;;;;;;;;;;2.70;94.00;;;;;;4993726;28;1167;-89
2022/12/02 03:17:19;;;;;;;;;;;2.70;94.30;;;;;;4997907;28;1351;-88
2022/12/02 03:19:47;;;;;;;;;;;2.70;94.30;;;;;;4989362;28;930;-89
2022/12/02 03:22:14;;;;;;;;;;;2.50;94.50;;;;;;4987216;28;1887;-89
2022/12/02 03:24:42;;;;;;;;;;;2.60;94.30;;;;;;4999507;28;1699;-88
2022/12/02 03:27:10;;;;;;;;;;;2.50;94.50;;;;;;4992592;28;1551;-88
2022/12/02 03:29:38;;;;;;;;;;;2.50;94.70;;;;;;4985252;28;1562;-88
2022/12/02 03:32:05;;;;;;;;;;;2.40;94.90;;;;;;4983275;28;1006;-89
2022/12/02 03:34:35;;;;;;;;;;;2.80;95.30;;;;;;5000284;28;1025;-88
2022/12/02 03:37:03;;;;;;;;;;;2.60;95.20;;;;;;4983326;28;1511;-88
2022/12/02 03:39:31;;;;;;;;;;;2.60;95.20;;;;;;4986734;28;1570;-88
2022/12/02 03:41:58;;;;;;;;;;;2.50;95.00;;;;;;4982352;28;1907;-88
2022/12/02 03:44:26;;;;;;;;;;;2.50;95.00;;;;;;4981822;28;1104;-88
2022/12/02 03:46:54;;;;;;;;;;;2.50;95.50;;;;;;4982576;28;974;-89
2022/12/02 03:49:22;;;;;;;;;;;2.50;95.30;;;;;;4982136;28;1814;-88
2022/12/02 03:51:51;;;;;;;;;;;2.80;95.60;;;;;;4982396;28;967;-88
2022/12/02 03:54:19;;;;;;;;;;;2.80;95.50;;;;;;4997009;28;1084;-89
2022/12/02 03:56:46;;;;;;;;;;;2.60;95.40;;;;;;4990976;28;1530;-90
2022/12/02 03:59:19;;;;;;;;;;;2.60;95.70;;;;;;4984065;28;1212;-89
2022/12/02 04:01:46;;;;;;;;;;;2.70;96.10;;;;;;4991637;28;1046;-89
2022/12/02 04:04:14;;;;;;;;;;;2.40;95.70;;;;;;4983969;28;1911;-90
2022/12/02 04:06:42;;;;;;;;;;;2.40;95.90;;;;;;4984635;28;990;-90
2022/12/02 04:09:11;;;;;;;;;;;2.50;95.70;;;;;;4984240;28;1548;-89
2022/12/02 04:11:39;;;;;;;;;;;2.50;95.70;;;;;;4983877;28;1565;-91
2022/12/02 04:14:07;;;;;;;;;;;2.40;95.60;;;;;;4985146;28;1156;-90
2022/12/02 04:16:34;;;;;;;;;;;2.40;95.80;;;;;;4984969;28;1637;-87
2022/12/02 04:19:02;;;;;;;;;;;2.50;95.80;;;;;;4984842;28;1331;-89
2022/12/02 04:21:30;;;;;;;;;;;2.40;95.80;;;;;;4991244;28;1021;-88
2022/12/02 04:23:58;;;;;;;;;;;2.30;96.10;;;;;;4989321;28;1907;-90
2022/12/02 04:26:27;;;;;;;;;;;2.40;96.40;;;;;;4993254;28;1668;-89
2022/12/02 04:28:54;;;;;;;;;;;2.40;96.70;;;;;;4992509;28;1391;-90
2022/12/02 04:31:22;;;;;;;;;;;2.50;96.30;;;;;;4995808;28;1628;-91
2022/12/02 04:33:50;;;;;;;;;;;2.40;96.30;;;;;;5001583;28;1521;-90
2022/12/02 04:36:17;;;;;;;;;;;2.50;96.40;;;;;;5005091;28;1586;-90
2022/12/02 04:38:45;;;;;;;;;;;2.60;96.30;;;;;;4997362;28;1327;-89
2022/12/02 04:41:13;;;;;;;;;;;2.50;96.50;;;;;;4984126;28;1468;-89
2022/12/02 04:43:42;;;;;;;;;;;2.40;96.50;;;;;;4984435;28;1990;-90
2022/12/02 04:46:10;;;;;;;;;;;2.50;96.50;;;;;;5000567;28;1573;-90
2022/12/02 04:48:38;;;;;;;;;;;2.50;96.40;;;;;;4995179;28;1556;-87
2022/12/02 04:51:06;;;;;;;;;;;2.40;96.30;;;;;;4987489;28;1548;-89
2022/12/02 04:53:33;;;;;;;;;;;2.40;96.50;;;;;;4992494;28;970;-86
2022/12/02 04:56:01;;;;;;;;;;;2.60;96.50;;;;;;4984761;28;1045;-87
2022/12/02 04:58:29;;;;;;;;;;;2.30;96.60;;;;;;4996028;28;1291;-88
2022/12/02 05:00:58;;;;;;;;;;;2.60;97.30;;;;;;4992003;28;1391;-90
2022/12/02 05:03:26;;;;;;;;;;;2.50;96.80;;;;;;4996163;28;1993;-89
2022/12/02 05:05:54;;;;;;;;;;;2.40;96.50;;;;;;4981793;28;1109;-88
2022/12/02 05:08:21;;;;;;;;;;;2.30;96.50;;;;;;4981092;28;1224;-88
2022/12/02 05:10:49;;;;;;;;;;;2.50;96.80;;;;;;4981542;28;1517;-88
2022/12/02 05:13:17;;;;;;;;;;;2.50;96.70;;;;;;4981459;28;1511;-89
2022/12/02 05:15:44;;;;;;;;;;;2.40;96.90;;;;;;4992637;28;1841;-90
2022/12/02 05:18:14;;;;;;;;;;;2.40;97.00;;;;;;4986535;28;1336;-89
2022/12/02 05:20:41;;;;;;;;;;;2.70;97.00;;;;;;4981013;28;1014;-89
2022/12/02 05:23:16;;;;;;;;;;;2.20;97.20;;;;;;4996685;28;1902;-88
2022/12/02 05:25:44;;;;;;;;;;;2.30;97.80;;;;;;5012640;28;1688;-87
2022/12/02 05:28:11;;;;;;;;;;;2.40;97.30;;;;;;4997861;28;1300;-87
2022/12/02 05:30:39;;;;;;;;;;;2.20;97.80;;;;;;4993666;28;1141;-88
2022/12/02 05:33:07;;;;;;;;;;;2.30;98.00;;;;;;4984756;28;1058;-87
2022/12/02 05:35:36;;;;;;;;;;;2.10;98.40;;;;;;4984988;28;1068;-89
2022/12/02 05:38:04;;;;;;;;;;;2.00;98.60;;;;;;4994460;28;1708;-89
2022/12/02 05:40:32;;;;;;;;;;;1.80;98.80;;;;;;4997476;28;1296;-89
2022/12/02 05:43:03;;;;;;;;;;;1.80;98.90;;;;;;4994473;28;1923;-90
2022/12/02 05:45:31;;;;;;;;;;;2.00;99.00;;;;;;4981206;28;1582;-90
2022/12/02 05:47:59;;;;;;;;;;;2.20;98.10;;;;;;4980188;28;1292;-89
2022/12/02 05:50:30;;;;;;;;;;;2.20;97.90;;;;;;4980155;28;1719;-90
2022/12/02 05:53:00;;;;;;;;;;;2.20;98.50;;;;;;4980768;28;1531;-89
2022/12/02 05:55:27;;;;;;;;;;;2.30;98.30;;;;;;4995766;28;995;-89
2022/12/02 05:57:59;;;;;;;;;;;2.30;97.60;;;;;;4980073;28;1193;-88
2022/12/02 06:00:26;;;;;;;;;;;2.30;98.10;;;;;;4997867;28;1661;-88
2022/12/02 06:02:57;;;;;;;;;;;2.20;97.70;;;;;;5017657;28;1746;-89
2022/12/02 06:05:26;;;;;;;;;;;2.40;98.00;;;;;;5009188;28;1871;-89
2022/12/02 06:07:55;;;;;;;;;;;2.20;97.80;;;;;;4995158;28;1281;-89
2022/12/02 06:10:28;;;;;;;;;;;2.20;98.00;;;;;;4980617;28;1530;-89
2022/12/02 06:12:57;;;;;;;;;;;2.40;98.00;;;;;;4981064;28;1502;-89
2022/12/02 06:15:35;;;;;;;;;;;2.30;97.70;;;;;;4991057;28;1033;-90
2022/12/02 06:18:03;;;;;;;;;;;2.30;98.10;;;;;;4984017;28;1340;-90
2022/12/02 06:20:33;;;;;;;;;;;2.40;97.90;;;;;;4982229;28;1648;-88
2022/12/02 06:23:02;;;;;;;;;;;2.20;97.60;;;;;;4995875;28;1065;-88
2022/12/02 06:25:31;;;;;;;;;;;2.30;98.00;;;;;;5004570;28;1958;-87
2022/12/02 06:28:01;;;;;;;;;;;2.40;97.70;;;;;;4982437;28;1284;-89
2022/12/02 06:30:36;;;;;;;;;;;2.40;97.80;;;;;;4982635;28;990;-88
2022/12/02 06:33:04;;;;;;;;;;;2.50;97.20;;;;;;4981431;28;947;-89
2022/12/02 06:35:33;;;;;;;;;;;2.50;97.40;;;;;;4981815;28;1722;-89
2022/12/02 06:38:02;;;;;;;;;;;2.50;97.50;;;;;;4981542;28;1599;-90
2022/12/02 06:40:31;;;;;;;;;;;2.20;97.20;;;;;;4981020;28;1754;-90
2022/12/02 06:43:00;;;;;;;;;;;2.20;97.80;;;;;;4979995;28;1640;-89
2022/12/02 06:45:28;;;;;;;;;;;2.40;97.70;;;;;;4980607;28;1911;-90
2022/12/02 06:48:02;;;;;;;;;;;2.40;97.50;;;;;;4979872;28;1248;-91
2022/12/02 06:50:32;;;;;;;;;;;2.30;97.50;;;;;;4981256;28;1116;-90
2022/12/02 06:53:11;;;;;;;;;;;2.20;97.80;;;;;;4981913;28;1720;-90
2022/12/02 06:55:43;;;;;;;;;;;2.30;97.30;;;;;;4981917;28;1144;-90
2022/12/02 06:58:25;;;;;;;;;;;2.60;97.50;;;;;;4981401;28;1458;-91
2022/12/02 07:00:52;;;;;;;;;;;2.40;97.50;;;;;;4980066;28;978;-90
2022/12/02 07:03:26;;;;;;;;;;;2.70;97.20;;;;;;4980589;28;1529;-90
2022/12/02 07:06:09;;;;;;;;;;;2.70;97.70;;;;;;4993655;28;1902;-90
2022/12/02 07:08:37;;;;;;;;;;;2.50;97.20;;;;;;5033043;28;1527;-91
2022/12/02 07:11:15;;;;;;;;;;;2.40;96.90;;;;;;5024337;28;1521;-90
2022/12/02 07:13:42;;;;;;;;;;;2.50;97.40;;;;;;5018856;28;1010;-91
2022/12/02 07:16:24;;;;;;;;;;;2.40;96.70;;;;;;5019343;28;1702;-91
2022/12/02 07:18:52;;;;;;;;;;;2.10;97.40;;;;;;5018862;28;1362;-90
2022/12/02 07:21:20;;;;;;;;;;;2.60;96.60;;;;;;5022862;28;1857;-90
2022/12/02 07:23:48;;;;;;;;;;;2.40;97.00;;;;;;5004106;28;1991;-90
2022/12/02 07:26:17;;;;;;;;;;;2.40;96.80;;;;;;5004416;28;1553;-90
2022/12/02 07:28:45;;;;;;;;;;;2.50;96.90;;;;;;4998718;28;1719;-89
2022/12/02 07:31:18;;;;;;;;;;;2.60;97.00;;;;;;5009529;28;1586;-90
2022/12/02 07:33:46;;;;;;;;;;;2.70;96.90;;;;;;4998436;28;1685;-89
2022/12/02 07:36:14;;;;;;;;;;;2.80;96.10;;;;;;4996489;28;1748;-90
2022/12/02 07:38:42;;;;;;;;;;;2.70;96.60;;;;;;4999118;28;1672;-90
2022/12/02 07:41:31;;;;;;;;;;;2.50;96.60;;;;;;5000827;28;1570;-89
2022/12/02 07:44:04;;;;;;;;;;;2.50;96.90;;;;;;4992975;28;1973;-88
2022/12/02 07:46:31;;;;;;;;;;;2.80;96.80;;;;;;4997838;28;1209;-88
2022/12/02 07:48:59;;;;;;;;;;;2.70;96.50;;;;;;4999009;28;1379;-89
2022/12/02 07:51:27;;;;;;;;;;;2.50;96.60;;;;;;4997877;28;1002;-88
2022/12/02 07:53:55;;;;;;;;;;;2.50;96.50;;;;;;5000159;28;1627;-89
2022/12/02 07:56:23;;;;;;;;;;;2.50;96.50;;;;;;4999142;28;1541;-89
2022/12/02 07:58:52;;;;;;;;;;;2.60;96.50;;;;;;4999346;28;1649;-89
2022/12/02 08:01:40;;;;;;;;;;;2.70;96.60;;;;;;4996780;28;1249;-89
2022/12/02 08:04:08;;;;;;;;;;;2.70;96.40;;;;;;4999627;28;1887;-89
2022/12/02 08:06:36;;;;;;;;;;;2.50;96.30;;;;;;5005761;28;1612;-89
2022/12/02 08:09:07;;;;;;;;;;;2.40;96.40;;;;;;5005143;28;1308;-89
2022/12/02 08:11:34;;;;;;;;;;;2.50;96.30;;;;;;4990130;28;1340;-90
2022/12/02 08:14:04;;;;;;;;;;;2.40;96.70;;;;;;5026823;28;1187;-90
2022/12/02 08:16:32;;;;;;;;;;;2.40;96.80;;;;;;5023932;28;1412;-91
2022/12/02 08:19:00;;;;;;;;;;;2.50;96.60;;;;;;5029408;28;1552;-90
2022/12/02 08:21:29;;;;;;;;;;;2.50;97.00;;;;;;5021855;28;1682;-92
2022/12/02 08:23:57;;;;;;;;;;;2.60;96.90;;;;;;5009973;28;1678;-91
2022/12/02 08:26:25;;;;;;;;;;;2.60;96.40;;;;;;4990195;28;1935;-92
2022/12/02 08:28:52;;;;;;;;;;;2.60;96.50;;;;;;4993173;28;1360;-92
2022/12/02 08:31:22;;;;;;;;;;;2.60;96.20;;;;;;5007232;28;938;-91
2022/12/02 08:33:50;;;;;;;;;;;2.60;96.50;;;;;;5002366;28;1096;-88
2022/12/02 08:36:18;;;;;;;;;;;2.50;96.40;;;;;;5004664;28;1947;-86
2022/12/02 08:38:46;;;;;;;;;;;2.50;97.10;;;;;;4997258;28;1491;-86
2022/12/02 08:41:14;;;;;;;;;;;2.40;97.00;;;;;;5006761;28;1012;-89
2022/12/02 08:43:43;;;;;;;;;;;2.40;97.10;;;;;;5004413;28;1558;-88
2022/12/02 08:46:11;;;;;;;;;;;2.60;97.20;;;;;;5001004;28;1966;-89
2022/12/02 08:48:40;;;;;;;;;;;2.80;96.90;;;;;;5000634;28;1710;-87
2022/12/02 08:51:08;;;;;;;;;;;3.00;96.10;;;;;;4999309;28;1555;-89
2022/12/02 08:53:35;;;;;;;;;;;2.80;96.40;;;;;;4998708;28;1605;-88
2022/12/02 08:56:03;;;;;;;;;;;2.80;95.80;;;;;;4995207;28;1653;-89
2022/12/02 08:58:31;;;;;;;;;;;2.70;96.20;;;;;;5015318;28;1574;-89
2022/12/02 09:00:58;;;;;;;;;;;2.70;96.30;;;;;;5017422;28;1699;-88
2022/12/02 09:03:26;;;;;;;;;;;2.70;96.00;;;;;;5000260;28;947;-88
2022/12/02 09:05:56;;;;;;;;;;;2.90;96.00;;;;;;4986617;28;1984;-88
2022/12/02 09:08:23;;;;;;;;;;;2.90;96.10;;;;;;4982903;28;1702;-90
2022/12/02 09:10:51;;;;;;;;;;;2.90;95.60;;;;;;4988515;28;1720;-89
2022/12/02 09:13:20;;;;;;;;;;;3.10;96.00;;;;;;5004677;28;1527;-88
2022/12/02 09:15:48;;;;;;;;;;;2.90;95.90;;;;;;4998201;28;1548;-89
2022/12/02 09:18:15;;;;;;;;;;;2.90;96.00;;;;;;5010794;28;1610;-89
2022/12/02 09:20:47;;;;;;;;;;;2.80;96.00;;;;;;5009451;28;1576;-89
2022/12/02 09:23:21;;;;;;;;;;;2.80;95.40;;;;;;5004057;28;1993;-89
2022/12/02 09:25:51;;;;;;;;;;;2.80;96.20;;;;;;5003866;28;1972;-89
2022/12/02 09:28:22;;;;;;;;;;;3.10;96.30;;;;;;5003393;28;1312;-90
2022/12/02 09:30:51;;;;;;;;;;;3.40;95.00;;;;;;5001658;28;1410;-89
2022/12/02 09:33:18;;;;;;;;;;;3.20;95.40;;;;;;4983221;28;1410;-90
2022/12/02 09:35:46;;;;;;;;;;;3.30;95.20;;;;;;4988069;28;1586;-89
2022/12/02 09:38:16;;;;;;;;;;;3.10;95.40;;;;;;4995396;28;1361;-92
2022/12/02 09:40:43;;;;;;;;;;;3.10;95.50;;;;;;4983058;28;1539;-93
2022/12/02 09:43:11;;;;;;;;;;;3.20;95.10;;;;;;4982002;28;1240;-91
2022/12/02 09:45:40;;;;;;;;;;;3.30;95.80;;;;;;4982061;28;1899;-90
2022/12/02 09:48:08;;;;;;;;;;;3.20;95.00;;;;;;4982337;28;1218;-91
2022/12/02 09:50:37;;;;;;;;;;;3.40;94.90;;;;;;4980759;28;1532;-91
2022/12/02 09:53:06;;;;;;;;;;;3.50;95.20;;;;;;4982559;28;1643;-90
2022/12/02 09:55:36;;;;;;;;;;;3.30;94.90;;;;;;4980883;28;1483;-90
2022/12/02 09:58:09;;;;;;;;;;;3.10;95.30;;;;;;4981281;28;1689;-90
2022/12/02 10:00:37;;;;;;;;;;;3.20;95.30;;;;;;5003958;28;1700;-91
2022/12/02 10:03:06;;;;;;;;;;;3.10;94.90;;;;;;5001217;28;1533;-89
2022/12/02 10:05:35;;;;;;;;;;;3.20;95.30;;;;;;4995811;28;1902;-86
2022/12/02 10:08:04;;;;;;;;;;;3.40;95.30;;;;;;5004383;28;1550;-90
2022/12/02 10:10:34;;;;;;;;;;;3.50;95.40;;;;;;4998970;28;1556;-89
2022/12/02 10:13:03;;;;;;;;;;;3.20;94.90;;;;;;4998652;28;1494;-91
2022/12/02 10:15:35;;;;;;;;;;;3.20;94.90;;;;;;5015932;28;1462;-90
2022/12/02 10:18:08;;;;;;;;;;;3.50;95.40;;;;;;5000489;28;1697;-91
2022/12/02 10:20:36;;;;;;;;;;;3.60;95.00;;;;;;5001530;28;1097;-90
2022/12/02 10:23:08;;;;;;;;;;;3.30;94.20;;;;;;5022377;28;1687;-90
2022/12/02 10:25:36;;;;;;;;;;;3.10;95.50;;;;;;5027136;28;1997;-90
2022/12/02 10:28:17;;;;;;;;;;;3.20;95.20;;;;;;5019572;28;1691;-90
2022/12/02 10:30:49;;;;;;;;;;;3.60;94.80;;;;;;5022258;28;1704;-90
2022/12/02 10:33:17;;;;;;;;;;;3.30;95.20;;;;;;5021102;28;1664;-88
2022/12/02 10:35:46;;;;;;;;;;;3.30;95.10;;;;;;5020480;28;1582;-91
2022/12/02 10:38:28;;;;;;;;;;;2.90;94.80;;;;;;5026673;28;1713;-90
2022/12/02 10:41:10;;;;;;;;;;;3.50;95.30;;;;;;5020847;28;1429;-89
2022/12/02 10:44:04;;;;;;;;;;;3.30;95.00;;;;;;5012642;28;1573;-91
2022/12/02 10:46:39;;;;;;;;;;;3.30;94.50;;;;;;4983797;28;1990;-89
2022/12/02 10:49:31;;;;;;;;;;;3.50;94.80;;;;;;4997707;28;1530;-91
2022/12/02 10:52:01;;;;;;;;;;;3.10;94.40;;;;;;5005757;28;1585;-90
2022/12/02 10:54:31;;;;;;;;;;;3.40;94.50;;;;;;5020885;28;1528;-90
2022/12/02 10:57:03;;;;;;;;;;;3.50;94.40;;;;;;5025607;28;1386;-90
2022/12/02 10:59:32;;;;;;;;;;;3.50;94.40;;;;;;5024899;28;1909;-89
2022/12/02 11:02:00;;;;;;;;;;;3.50;94.50;;;;;;5011006;28;1550;-91
2022/12/02 11:04:28;;;;;;;;;;;3.70;94.60;;;;;;5005270;28;1410;-90
2022/12/02 11:06:56;;;;;;;;;;;3.50;93.90;;;;;;5009056;28;1887;-90
2022/12/02 11:09:26;;;;;;;;;;;3.50;93.90;;;;;;5006291;28;1620;-90
2022/12/02 11:12:30;;;;;;;;;;;3.40;94.30;;;;;;5010098;28;1588;-92
2022/12/02 11:14:59;;;;;;;;;;;3.10;94.50;;;;;;5002309;28;1497;-89
2022/12/02 11:17:47;;;;;;;;;;;3.50;94.40;;;;;;5006751;28;1556;-90
2022/12/02 11:20:19;;;;;;;;;;;3.40;94.10;;;;;;5013446;28;1753;-89
2022/12/02 11:22:49;;;;;;;;;;;3.40;94.40;;;;;;5011006;28;1414;-90
2022/12/02 11:25:34;;;;;;;;;;;3.40;94.50;;;;;;5011289;28;1536;-90
2022/12/02 11:28:20;;;;;;;;;;;3.50;94.70;;;;;;4996060;28;1887;-90
2022/12/02 11:31:10;;;;;;;;;;;3.40;94.30;;;;;;4999752;28;2000;-91
2022/12/02 11:34:00;;;;;;;;;;;3.10;94.50;;;;;;5009540;28;1652;-92
2022/12/02 11:36:33;;;;;;;;;;;3.20;95.00;;;;;;5010259;28;1571;-89
2022/12/02 11:39:06;;;;;;;;;;;3.00;94.70;;;;;;5009179;28;1666;-93
2022/12/02 11:41:58;;;;;;;;;;;3.20;95.10;;;;;;5012551;28;1564;-93
2022/12/02 11:44:29;;;;;;;;;;;3.20;95.10;;;;;;4938186;29;1538;-92
2022/12/02 11:46:59;;;;;;;;;;;3.40;94.90;;;;;;4935925;28;1990;-93
2022/12/02 11:49:31;;;;;;;;;;;3.40;94.40;;;;;;4931748;29;1605;-90
2022/12/02 11:52:01;;;;;;;;;;;3.50;94.50;;;;;;4928477;29;1549;-92
2022/12/02 11:54:37;;;;;;;;;;;3.30;94.60;;;;;;4930458;29;1692;-90
2022/12/02 11:57:05;;;;;;;;;;;3.30;94.40;;;;;;4927628;29;1583;-91
2022/12/02 11:59:34;;;;;;;;;;;3.50;94.10;;;;;;4925168;29;1553;-92
2022/12/02 12:02:11;;;;;;;;;;;3.40;94.40;;;;;;4925738;29;1566;-90
2022/12/02 12:04:39;;;;;;;;;;;3.20;94.30;;;;;;4926290;29;1648;-90
2022/12/02 12:07:07;;;;;;;;;;;3.40;94.00;;;;;;4912746;28;1911;-93
2022/12/02 12:09:35;;;;;;;;;;;3.30;94.40;;;;;;4986662;28;1854;-91
2022/12/02 12:12:07;;;;;;;;;;;3.40;93.90;;;;;;4996567;28;1721;-90
2022/12/02 12:14:50;;;;;;;;;;;3.50;94.50;;;;;;5006506;28;1545;-89
2022/12/02 12:17:31;;;;;;;;;;;3.30;94.20;;;;;;5006232;28;1595;-90
2022/12/02 12:19:58;;;;;;;;;;;3.30;94.40;;;;;;5007074;28;1501;-89
2022/12/02 12:22:27;;;;;;;;;;;3.30;94.00;;;;;;5009413;28;1553;-90
2022/12/02 12:25:15;;;;;;;;;;;3.30;94.70;;;;;;5021730;28;1496;-89
2022/12/02 12:27:50;;;;;;;;;;;3.30;94.00;;;;;;5009612;28;1969;-90
2022/12/02 12:30:18;;;;;;;;;;;3.20;93.10;;;;;;5028591;28;1033;-90
2022/12/02 12:32:47;;;;;;;;;;;3.30;93.00;;;;;;5032497;28;1514;-91
2022/12/02 12:35:15;;;;;;;;;;;3.30;93.70;;;;;;5039558;28;1549;-91
2022/12/02 12:37:44;;;;;;;;;;;3.30;93.40;;;;;;5031311;28;1520;-90
2022/12/02 12:40:15;;;;;;;;;;;3.70;93.30;;;;;;5029339;28;1718;-89
2022/12/02 12:42:43;;;;;;;;;;;3.30;93.50;;;;;;5031100;28;1510;-90
2022/12/02 12:45:11;;;;;;;;;;;3.40;93.80;;;;;;5029430;28;1522;-91
2022/12/02 12:47:39;;;;;;;;;;;3.50;93.50;;;;;;5012302;28;1883;-89
2022/12/02 12:50:10;;;;;;;;;;;3.40;93.30;;;;;;5010041;28;1573;-90
2022/12/02 12:52:39;;;;;;;;;;;3.40;93.70;;;;;;5011887;28;1554;-90
2022/12/02 12:55:08;;;;;;;;;;;3.40;92.50;;;;;;5009307;28;1590;-90
2022/12/02 12:57:39;;;;;;;;;;;3.50;93.90;;;;;;5009587;28;1532;-92
2022/12/02 13:00:08;;;;;;;;;;;3.60;93.40;;;;;;5008487;28;1761;-90
2022/12/02 13:05:35;;;;;;;;;;;3.50;92.80;;;;;;4946843;29;1550;-90
2022/12/02 13:08:05;;;;;;;;;;;3.60;92.80;;;;;;4946747;29;1898;-89
2022/12/02 13:10:36;;;;;;;;;;;3.70;92.80;;;;;;4945351;29;1424;-91
2022/12/02 13:13:04;;;;;;;;;;;3.60;92.00;;;;;;4943136;29;1555;-91
2022/12/02 13:15:33;;;;;;;;;;;3.50;92.40;;;;;;4944386;29;1681;-91
2022/12/02 13:18:03;;;;;;;;;;;3.70;92.80;;;;;;4970018;28;1378;-91
2022/12/02 13:20:31;;;;;;;;;;;3.30;91.90;;;;;;4932324;29;1544;-90
2022/12/02 13:23:01;;;;;;;;;;;3.90;91.60;;;;;;4961402;28;1674;-91
2022/12/02 13:25:29;;;;;;;;;;;3.50;92.00;;;;;;4977086;28;1418;-91
2022/12/02 13:27:57;;;;;;;;;;;3.30;91.90;;;;;;4973993;28;1919;-91
2022/12/02 13:30:26;;;;;;;;;;;3.40;91.60;;;;;;4996056;28;1233;-91
2022/12/02 13:32:57;;;;;;;;;;;3.40;91.60;;;;;;4997367;28;1677;-92
2022/12/02 13:35:25;;;;;;;;;;;3.70;91.50;;;;;;4996297;28;1609;-91
2022/12/02 13:37:53;;;;;;;;;;;3.50;91.50;;;;;;4995500;28;1460;-90
2022/12/02 13:40:25;;;;;;;;;;;3.30;91.00;;;;;;5000174;28;1481;-91
2022/12/02 13:42:54;;;;;;;;;;;3.20;91.50;;;;;;4992979;28;1681;-90
2022/12/02 13:45:23;;;;;;;;;;;3.20;91.00;;;;;;4992092;28;1534;-91
2022/12/02 13:47:51;;;;;;;;;;;3.50;91.10;;;;;;4985477;28;1989;-89
2022/12/02 13:50:19;;;;;;;;;;;3.30;91.40;;;;;;4994729;28;1534;-87
2022/12/02 13:52:47;;;;;;;;;;;3.30;91.00;;;;;;4999787;28;1037;-89
2022/12/02 13:55:15;;;;;;;;;;;3.30;91.10;;;;;;5001779;28;1406;-89
2022/12/02 13:57:44;;;;;;;;;;;3.30;91.10;;;;;;5005429;28;1201;-89
2022/12/02 14:00:12;;;;;;;;;;;3.20;92.10;;;;;;5007202;28;966;-91
2022/12/02 14:02:42;;;;;;;;;;;3.40;92.50;;;;;;5018762;28;1505;-91
2022/12/02 14:05:10;;;;;;;;;;;3.30;91.40;;;;;;5019187;28;1689;-91
2022/12/02 14:07:38;;;;;;;;;;;3.40;91.20;;;;;;5019165;28;1887;-91
2022/12/02 14:10:07;;;;;;;;;;;3.50;91.00;;;;;;5019183;28;1701;-92
2022/12/02 14:12:38;;;;;;;;;;;3.60;91.10;;;;;;5014247;28;1688;-91
2022/12/02 14:15:08;;;;;;;;;;;3.70;90.50;;;;;;5008470;28;1786;-90
2022/12/02 14:17:36;;;;;;;;;;;3.70;90.50;;;;;;5010364;28;1680;-91
2022/12/02 14:20:07;;;;;;;;;;;3.60;90.60;;;;;;5012525;28;1027;-91
2022/12/02 14:22:35;;;;;;;;;;;3.60;90.90;;;;;;5013618;28;1644;-92
2022/12/02 14:25:04;;;;;;;;;;;3.60;90.40;;;;;;5014700;28;1443;-94
2022/12/02 14:27:32;;;;;;;;;;;3.60;91.30;;;;;;5008310;28;1906;-93
2022/12/02 14:30:01;;;;;;;;;;;3.60;91.00;;;;;;5004685;28;1539;-92
2022/12/02 14:32:31;;;;;;;;;;;3.60;90.80;;;;;;5009194;28;1509;-91
2022/12/02 14:34:59;;;;;;;;;;;3.50;91.20;;;;;;5007926;28;1427;-90
2022/12/02 14:37:28;;;;;;;;;;;3.60;90.90;;;;;;5005657;28;1567;-91
2022/12/02 14:39:56;;;;;;;;;;;3.70;90.80;;;;;;5010368;28;1600;-92
2022/12/02 14:42:24;;;;;;;;;;;3.80;90.80;;;;;;5009807;28;1565;-89
2022/12/02 14:44:54;;;;;;;;;;;3.80;90.70;;;;;;5017213;28;1750;-91
2022/12/02 14:47:24;;;;;;;;;;;3.70;91.20;;;;;;5016684;28;1649;-91
2022/12/02 14:49:54;;;;;;;;;;;3.70;91.10;;;;;;5013615;28;1993;-92
2022/12/02 14:52:22;;;;;;;;;;;3.40;91.40;;;;;;5013270;28;1556;-91
2022/12/02 14:54:51;;;;;;;;;;;3.40;91.20;;;;;;5012861;28;1743;-91
2022/12/02 14:57:19;;;;;;;;;;;3.40;91.10;;;;;;5013524;28;1556;-91
2022/12/02 14:59:53;;;;;;;;;;;3.50;91.20;;;;;;5013615;28;1562;-91
2022/12/02 15:02:21;;;;;;;;;;;3.40;91.60;;;;;;5013635;28;1750;-91
2022/12/02 15:04:49;;;;;;;;;;;3.30;91.20;;;;;;5012377;28;1561;-93
2022/12/02 15:07:19;;;;;;;;;;;3.20;91.50;;;;;;5015068;28;1659;-90
2022/12/02 15:09:48;;;;;;;;;;;3.20;91.90;;;;;;5004183;28;1883;-90